e-Mail: Password: Lost your password? Click here. - Register a new user

c h a v e z j u a r e z . c o m

Weather - Tiempo - Wetter - Temps

METAR DATA MMMX (Mexico City)

Mexico City / Licenci, Mexico (MMMX) 19-26N 099-06W
Nov 14, 2018 - 05:44 AM EST / 2018.11.14 1044 UTC
Wind: from the E (090 degrees) at 2 MPH (2 KT):0
Visibility: 4 mile(s):0
Sky conditions: overcast
Weather: rain
Temperature: 41 F (5 C)
Dew Point: 37 F (3 C)
Relative Humidity: 86%
Pressure (altimeter): 30.39 in. Hg (1029 hPa)
ob: MMMX 141044Z 09002KT 4SM RA BKN020 OVC080 05/03 A3039 TEMPO 4SM RA RMK 60005 8/57/ HZY RAB40
cycle: 10

Mexico City

St. Prex




Current weather alarms for Switzerland


www.wetteralarm.ch